sensor_id;sensor_type;location;lat;lon;timestamp;pressure;altitude;pressure_sealevel;temperature;humidity
36692;BME280;22678;52.052;4.242;2023-02-04T00:00:16;103407.13;;;8.38;96.14
36692;BME280;22678;52.052;4.242;2023-02-04T00:02:42;103413.19;;;8.37;96.26
36692;BME280;22678;52.052;4.242;2023-02-04T00:05:08;103408.66;;;8.33;96.50
36692;BME280;22678;52.052;4.242;2023-02-04T00:07:33;103375.72;;;8.18;96.55
36692;BME280;22678;52.052;4.242;2023-02-04T00:09:59;103388.25;;;8.25;96.81
36692;BME280;22678;52.052;4.242;2023-02-04T00:12:24;103410.44;;;8.34;96.88
36692;BME280;22678;52.052;4.242;2023-02-04T00:14:49;103389.03;;;8.23;96.91
36692;BME280;22678;52.052;4.242;2023-02-04T00:17:15;103409.47;;;8.32;97.11
36692;BME280;22678;52.052;4.242;2023-02-04T00:19:40;103418.44;;;8.37;97.12
36692;BME280;22678;52.052;4.242;2023-02-04T00:22:07;103415.81;;;8.37;97.28
36692;BME280;22678;52.052;4.242;2023-02-04T00:24:35;103397.09;;;8.28;97.40
36692;BME280;22678;52.052;4.242;2023-02-04T00:27:02;103409.75;;;8.38;97.55
36692;BME280;22678;52.052;4.242;2023-02-04T00:29:28;103403.47;;;8.34;97.41
36692;BME280;22678;52.052;4.242;2023-02-04T00:31:53;103410.56;;;8.37;97.83
36692;BME280;22678;52.052;4.242;2023-02-04T00:34:18;103400.84;;;8.34;97.57
36692;BME280;22678;52.052;4.242;2023-02-04T00:36:45;103408.09;;;8.40;98.01
36692;BME280;22678;52.052;4.242;2023-02-04T00:39:10;103399.84;;;8.31;97.98
36692;BME280;22678;52.052;4.242;2023-02-04T00:41:35;103407.97;;;8.37;97.96
36692;BME280;22678;52.052;4.242;2023-02-04T00:44:01;103400.78;;;8.33;97.96
36692;BME280;22678;52.052;4.242;2023-02-04T00:46:26;103412.50;;;8.41;98.10
36692;BME280;22678;52.052;4.242;2023-02-04T00:48:51;103411.41;;;8.36;98.15
36692;BME280;22678;52.052;4.242;2023-02-04T00:51:17;103409.63;;;8.35;98.28
36692;BME280;22678;52.052;4.242;2023-02-04T00:53:42;103422.94;;;8.39;98.21
36692;BME280;22678;52.052;4.242;2023-02-04T00:56:07;103414.88;;;8.35;98.49
36692;BME280;22678;52.052;4.242;2023-02-04T00:58:33;103401.47;;;8.29;98.38
36692;BME280;22678;52.052;4.242;2023-02-04T01:00:58;103428.13;;;8.38;98.37
36692;BME280;22678;52.052;4.242;2023-02-04T01:03:23;103423.56;;;8.34;98.29
36692;BME280;22678;52.052;4.242;2023-02-04T01:05:49;103419.13;;;8.33;98.58
36692;BME280;22678;52.052;4.242;2023-02-04T01:08:14;103424.44;;;8.34;98.58
36692;BME280;22678;52.052;4.242;2023-02-04T01:10:40;103427.00;;;8.33;98.74
36692;BME280;22678;52.052;4.242;2023-02-04T01:13:06;103425.31;;;8.33;98.68
36692;BME280;22678;52.052;4.242;2023-02-04T01:15:33;103444.66;;;8.37;98.75
36692;BME280;22678;52.052;4.242;2023-02-04T01:17:58;103428.63;;;8.29;98.77
36692;BME280;22678;52.052;4.242;2023-02-04T01:20:24;103432.13;;;8.30;98.73
36692;BME280;22678;52.052;4.242;2023-02-04T01:22:49;103431.25;;;8.29;98.79
36692;BME280;22678;52.052;4.242;2023-02-04T01:25:14;103424.81;;;8.22;98.88
36692;BME280;22678;52.052;4.242;2023-02-04T01:27:40;103432.81;;;8.25;98.72
36692;BME280;22678;52.052;4.242;2023-02-04T01:30:05;103429.25;;;8.23;98.96
36692;BME280;22678;52.052;4.242;2023-02-04T01:32:31;103448.59;;;8.27;98.81
36692;BME280;22678;52.052;4.242;2023-02-04T01:34:56;103446.72;;;8.23;98.94
36692;BME280;22678;52.052;4.242;2023-02-04T01:37:21;103451.16;;;8.25;98.88
36692;BME280;22678;52.052;4.242;2023-02-04T01:39:47;103447.47;;;8.20;98.99
36692;BME280;22678;52.052;4.242;2023-02-04T01:42:12;103452.84;;;8.23;99.04
36692;BME280;22678;52.052;4.242;2023-02-04T01:44:37;103459.03;;;8.25;99.16
36692;BME280;22678;52.052;4.242;2023-02-04T01:47:03;103447.72;;;8.27;99.20
36692;BME280;22678;52.052;4.242;2023-02-04T01:49:29;103444.84;;;8.20;99.45
36692;BME280;22678;52.052;4.242;2023-02-04T01:51:55;103452.72;;;8.20;99.35
36692;BME280;22678;52.052;4.242;2023-02-04T01:54:20;103451.94;;;8.23;99.49
36692;BME280;22678;52.052;4.242;2023-02-04T01:56:46;103464.22;;;8.24;99.53
36692;BME280;22678;52.052;4.242;2023-02-04T01:59:14;103464.28;;;8.25;99.56
36692;BME280;22678;52.052;4.242;2023-02-04T02:01:45;103458.97;;;8.24;99.65
36692;BME280;22678;52.052;4.242;2023-02-04T02:04:34;103461.47;;;8.21;99.74
36692;BME280;22678;52.052;4.242;2023-02-04T02:07:01;103466.75;;;8.22;99.66
36692;BME280;22678;52.052;4.242;2023-02-04T02:09:28;103460.63;;;8.22;99.66
36692;BME280;22678;52.052;4.242;2023-02-04T02:11:55;103451.59;;;8.15;99.66
36692;BME280;22678;52.052;4.242;2023-02-04T02:14:21;103474.50;;;8.19;99.83
36692;BME280;22678;52.052;4.242;2023-02-04T02:16:47;103461.38;;;8.19;99.88
36692;BME280;22678;52.052;4.242;2023-02-04T02:19:16;103460.38;;;8.16;99.98
36692;BME280;22678;52.052;4.242;2023-02-04T02:21:52;103472.75;;;8.20;99.92
36692;BME280;22678;52.052;4.242;2023-02-04T02:24:33;103473.81;;;8.23;100.00
36692;BME280;22678;52.052;4.242;2023-02-04T02:27:01;103472.94;;;8.23;99.95
36692;BME280;22678;52.052;4.242;2023-02-04T02:29:28;103453.19;;;8.12;99.95
36692;BME280;22678;52.052;4.242;2023-02-04T02:31:54;103486.91;;;8.23;100.00
36692;BME280;22678;52.052;4.242;2023-02-04T02:34:24;103471.75;;;8.16;100.00
36692;BME280;22678;52.052;4.242;2023-02-04T02:36:50;103494.78;;;8.23;100.00
36692;BME280;22678;52.052;4.242;2023-02-04T02:39:16;103492.84;;;8.19;100.00
36692;BME280;22678;52.052;4.242;2023-02-04T02:41:42;103483.91;;;8.14;100.00
36692;BME280;22678;52.052;4.242;2023-02-04T02:44:09;103480.56;;;8.18;100.00
36692;BME280;22678;52.052;4.242;2023-02-04T02:46:35;103480.44;;;8.15;100.00
36692;BME280;22678;52.052;4.242;2023-02-04T02:49:00;103491.19;;;8.21;100.00
36692;BME280;22678;52.052;4.242;2023-02-04T02:51:26;103495.66;;;8.24;100.00
36692;BME280;22678;52.052;4.242;2023-02-04T02:53:52;103490.16;;;8.18;100.00
36692;BME280;22678;52.052;4.242;2023-02-04T02:56:18;103500.97;;;8.25;100.00
36692;BME280;22678;52.052;4.242;2023-02-04T02:58:44;103492.03;;;8.20;100.00
36692;BME280;22678;52.052;4.242;2023-02-04T03:01:10;103499.22;;;8.24;100.00
36692;BME280;22678;52.052;4.242;2023-02-04T03:03:39;103482.38;;;8.19;100.00
36692;BME280;22678;52.052;4.242;2023-02-04T03:06:10;103484.97;;;8.19;100.00
36692;BME280;22678;52.052;4.242;2023-02-04T03:08:36;103494.03;;;8.26;100.00
36692;BME280;22678;52.052;4.242;2023-02-04T03:11:03;103497.53;;;8.27;100.00
36692;BME280;22678;52.052;4.242;2023-02-04T03:13:28;103484.16;;;8.20;100.00
36692;BME280;22678;52.052;4.242;2023-02-04T03:15:54;103490.41;;;8.24;100.00
36692;BME280;22678;52.052;4.242;2023-02-04T03:18:20;103481.47;;;8.19;100.00
36692;BME280;22678;52.052;4.242;2023-02-04T03:20:47;103484.03;;;8.17;100.00
36692;BME280;22678;52.052;4.242;2023-02-04T03:23:13;103496.59;;;8.24;100.00
36692;BME280;22678;52.052;4.242;2023-02-04T03:25:38;103496.41;;;8.21;100.00
36692;BME280;22678;52.052;4.242;2023-02-04T03:28:04;103482.38;;;8.19;100.00
36692;BME280;22678;52.052;4.242;2023-02-04T03:30:30;103487.88;;;8.25;100.00
36692;BME280;22678;52.052;4.242;2023-02-04T03:32:56;103491.34;;;8.24;100.00
36692;BME280;22678;52.052;4.242;2023-02-04T03:35:21;103490.16;;;8.18;100.00
36692;BME280;22678;52.052;4.242;2023-02-04T03:37:47;103465.19;;;8.06;100.00
36692;BME280;22678;52.052;4.242;2023-02-04T03:40:12;103491.03;;;8.18;100.00
36692;BME280;22678;52.052;4.242;2023-02-04T03:42:38;103492.97;;;8.22;100.00
36692;BME280;22678;52.052;4.242;2023-02-04T03:45:03;103491.19;;;8.21;100.00
36692;BME280;22678;52.052;4.242;2023-02-04T03:47:29;103489.34;;;8.19;100.00
36692;BME280;22678;52.052;4.242;2023-02-04T03:49:54;103478.50;;;8.11;100.00
36692;BME280;22678;52.052;4.242;2023-02-04T03:52:20;103512.16;;;8.21;100.00
36692;BME280;22678;52.052;4.242;2023-02-04T03:54:45;103496.09;;;8.14;100.00
36692;BME280;22678;52.052;4.242;2023-02-04T03:57:11;103487.22;;;8.10;100.00
36692;BME280;22678;52.052;4.242;2023-02-04T03:59:36;103498.72;;;8.14;100.00
36692;BME280;22678;52.052;4.242;2023-02-04T04:02:02;103493.28;;;8.09;100.00
36692;BME280;22678;52.052;4.242;2023-02-04T04:04:27;103498.78;;;8.15;100.00
36692;BME280;22678;52.052;4.242;2023-02-04T04:06:53;103500.50;;;8.15;100.00
36692;BME280;22678;52.052;4.242;2023-02-04T04:09:18;103505.69;;;8.13;100.00
36692;BME280;22678;52.052;4.242;2023-02-04T04:11:43;103503.69;;;8.07;100.00
36692;BME280;22678;52.052;4.242;2023-02-04T04:14:09;103511.63;;;8.09;100.00
36692;BME280;22678;52.052;4.242;2023-02-04T04:16:34;103512.38;;;8.06;100.00
36692;BME280;22678;52.052;4.242;2023-02-04T04:18:59;103516.72;;;8.06;100.00
36692;BME280;22678;52.052;4.242;2023-02-04T04:21:24;103536.16;;;8.11;100.00
36692;BME280;22678;52.052;4.242;2023-02-04T04:23:50;103534.25;;;8.07;100.00
36692;BME280;22678;52.052;4.242;2023-02-04T04:26:15;103538.72;;;8.10;100.00
36692;BME280;22678;52.052;4.242;2023-02-04T04:28:41;103530.63;;;8.05;100.00
36692;BME280;22678;52.052;4.242;2023-02-04T04:31:08;103539.50;;;8.07;100.00
36692;BME280;22678;52.052;4.242;2023-02-04T04:33:33;103544.72;;;8.07;100.00
36692;BME280;22678;52.052;4.242;2023-02-04T04:35:59;103534.94;;;8.03;100.00
36692;BME280;22678;52.052;4.242;2023-02-04T04:38:24;103535.69;;;8.00;100.00
36692;BME280;22678;52.052;4.242;2023-02-04T04:40:49;103532.16;;;8.00;100.00
36692;BME280;22678;52.052;4.242;2023-02-04T04:43:15;103530.97;;;7.93;100.00
36692;BME280;22678;52.052;4.242;2023-02-04T04:45:40;103536.44;;;7.98;100.00
36692;BME280;22678;52.052;4.242;2023-02-04T04:48:05;103549.84;;;8.04;100.00
36692;BME280;22678;52.052;4.242;2023-02-04T04:50:31;103559.59;;;8.08;100.00
36692;BME280;22678;52.052;4.242;2023-02-04T04:52:56;103562.22;;;8.08;100.00
36692;BME280;22678;52.052;4.242;2023-02-04T04:55:21;103548.03;;;8.03;100.00
36692;BME280;22678;52.052;4.242;2023-02-04T04:57:46;103545.53;;;8.06;100.00
36692;BME280;22678;52.052;4.242;2023-02-04T05:00:17;103550.72;;;8.04;100.00
36692;BME280;22678;52.052;4.242;2023-02-04T05:02:43;103556.16;;;8.09;100.00
36692;BME280;22678;52.052;4.242;2023-02-04T05:05:09;103548.31;;;8.09;100.00
36692;BME280;22678;52.052;4.242;2023-02-04T05:07:34;103545.53;;;8.06;100.00
36692;BME280;22678;52.052;4.242;2023-02-04T05:10:00;103544.59;;;8.04;100.00
36692;BME280;22678;52.052;4.242;2023-02-04T05:12:26;103551.75;;;8.08;100.00
36692;BME280;22678;52.052;4.242;2023-02-04T05:14:51;103558.78;;;8.09;100.00
36692;BME280;22678;52.052;4.242;2023-02-04T05:17:17;103558.94;;;8.12;100.00
36692;BME280;22678;52.052;4.242;2023-02-04T05:19:42;103545.53;;;8.06;100.00
36692;BME280;22678;52.052;4.242;2023-02-04T05:22:07;103535.59;;;7.99;100.00
36692;BME280;22678;52.052;4.242;2023-02-04T05:24:32;103544.59;;;8.04;100.00
36692;BME280;22678;52.052;4.242;2023-02-04T05:26:58;103545.41;;;8.03;100.00
36692;BME280;22678;52.052;4.242;2023-02-04T05:29:23;103550.78;;;8.06;100.00
36692;BME280;22678;52.052;4.242;2023-02-04T05:31:48;103552.38;;;8.02;100.00
36692;BME280;22678;52.052;4.242;2023-02-04T05:34:14;103549.84;;;8.04;100.00
36692;BME280;22678;52.052;4.242;2023-02-04T05:36:39;103542.38;;;7.94;100.00
36692;BME280;22678;52.052;4.242;2023-02-04T05:39:04;103554.91;;;8.01;100.00
36692;BME280;22678;52.052;4.242;2023-02-04T05:41:30;103559.34;;;8.02;100.00
36692;BME280;22678;52.052;4.242;2023-02-04T05:43:55;103562.03;;;8.03;100.00
36692;BME280;22678;52.052;4.242;2023-02-04T05:46:20;103558.38;;;8.00;100.00
36692;BME280;22678;52.052;4.242;2023-02-04T05:48:45;103558.16;;;7.95;100.00
36692;BME280;22678;52.052;4.242;2023-02-04T05:51:11;103561.81;;;7.99;100.00
36692;BME280;22678;52.052;4.242;2023-02-04T05:53:36;103553.81;;;7.96;100.00
36692;BME280;22678;52.052;4.242;2023-02-04T05:56:01;103573.19;;;7.99;100.00
36692;BME280;22678;52.052;4.242;2023-02-04T05:58:27;103586.53;;;8.04;100.00
36692;BME280;22678;52.052;4.242;2023-02-04T06:00:58;103578.41;;;7.99;100.00
36692;BME280;22678;52.052;4.242;2023-02-04T06:03:24;103584.72;;;8.03;100.00
36692;BME280;22678;52.052;4.242;2023-02-04T06:05:50;103586.34;;;8.01;100.00
36692;BME280;22678;52.052;4.242;2023-02-04T06:08:15;103581.91;;;7.98;100.00
36692;BME280;22678;52.052;4.242;2023-02-04T06:10:40;103586.34;;;8.01;100.00
36692;BME280;22678;52.052;4.242;2023-02-04T06:13:06;103582.78;;;7.99;100.00
36692;BME280;22678;52.052;4.242;2023-02-04T06:15:31;103589.81;;;8.00;100.00
36692;BME280;22678;52.052;4.242;2023-02-04T06:17:56;103595.28;;;8.04;100.00
36692;BME280;22678;52.052;4.242;2023-02-04T06:20:22;103594.16;;;7.99;100.00
36692;BME280;22678;52.052;4.242;2023-02-04T06:22:47;103601.19;;;8.00;100.00
36692;BME280;22678;52.052;4.242;2023-02-04T06:25:16;103611.06;;;8.06;100.00
36692;BME280;22678;52.052;4.242;2023-02-04T06:27:41;103603.13;;;8.04;100.00
36692;BME280;22678;52.052;4.242;2023-02-04T06:30:07;103601.34;;;8.03;100.00
36692;BME280;22678;52.052;4.242;2023-02-04T06:32:33;103605.75;;;8.04;100.00
36692;BME280;22678;52.052;4.242;2023-02-04T06:34:58;103610.19;;;8.05;100.00
36692;BME280;22678;52.052;4.242;2023-02-04T06:37:23;103622.59;;;8.10;100.00
36692;BME280;22678;52.052;4.242;2023-02-04T06:39:49;103611.06;;;8.06;100.00
36692;BME280;22678;52.052;4.242;2023-02-04T06:42:14;103628.75;;;8.10;100.00
36692;BME280;22678;52.052;4.242;2023-02-04T06:44:39;103623.50;;;8.10;100.00
36692;BME280;22678;52.052;4.242;2023-02-04T06:47:04;103605.69;;;8.03;100.00
36692;BME280;22678;52.052;4.242;2023-02-04T06:49:30;103613.63;;;8.04;100.00
36692;BME280;22678;52.052;4.242;2023-02-04T06:51:55;103601.19;;;8.00;100.00
36692;BME280;22678;52.052;4.242;2023-02-04T06:54:20;103612.56;;;8.01;100.00
36692;BME280;22678;52.052;4.242;2023-02-04T06:56:46;103632.19;;;8.09;100.00
36692;BME280;22678;52.052;4.242;2023-02-04T06:59:11;103632.19;;;8.09;100.00
36692;BME280;22678;52.052;4.242;2023-02-04T07:01:36;103629.56;;;8.09;100.00
36692;BME280;22678;52.052;4.242;2023-02-04T07:04:02;103639.22;;;8.10;100.00
36692;BME280;22678;52.052;4.242;2023-02-04T07:06:27;103626.66;;;8.03;100.00
36692;BME280;22678;52.052;4.242;2023-02-04T07:08:52;103630.38;;;8.08;100.00
36692;BME280;22678;52.052;4.242;2023-02-04T07:11:18;103630.22;;;8.05;100.00
36692;BME280;22678;52.052;4.242;2023-02-04T07:13:43;103632.91;;;8.06;100.00
36692;BME280;22678;52.052;4.242;2023-02-04T07:16:09;103608.91;;;7.97;100.00
36692;BME280;22678;52.052;4.242;2023-02-04T07:18:34;103625.00;;;8.05;100.00
36692;BME280;22678;52.052;4.242;2023-02-04T07:20:59;103643.53;;;8.10;100.00
36692;BME280;22678;52.052;4.242;2023-02-04T07:23:25;103636.47;;;8.07;100.00
36692;BME280;22678;52.052;4.242;2023-02-04T07:25:52;103636.59;;;8.10;100.00
36692;BME280;22678;52.052;4.242;2023-02-04T07:28:18;103639.22;;;8.10;100.00
36692;BME280;22678;52.052;4.242;2023-02-04T07:30:44;103640.03;;;8.09;100.00
36692;BME280;22678;52.052;4.242;2023-02-04T07:33:10;103645.13;;;8.06;100.00
36692;BME280;22678;52.052;4.242;2023-02-04T07:35:35;103651.28;;;8.06;100.00
36692;BME280;22678;52.052;4.242;2023-02-04T07:38:02;103652.25;;;8.09;100.00
36692;BME280;22678;52.052;4.242;2023-02-04T07:40:27;103650.44;;;8.07;100.00
36692;BME280;22678;52.052;4.242;2023-02-04T07:42:53;103647.63;;;8.03;100.00
36692;BME280;22678;52.052;4.242;2023-02-04T07:45:18;103651.13;;;8.03;100.00
36692;BME280;22678;52.052;4.242;2023-02-04T07:47:43;103652.03;;;8.04;100.00
36692;BME280;22678;52.052;4.242;2023-02-04T07:50:09;103663.78;;;8.12;100.00
36692;BME280;22678;52.052;4.242;2023-02-04T07:52:34;103661.00;;;8.09;100.00
36692;BME280;22678;52.052;4.242;2023-02-04T07:54:59;103658.38;;;8.09;100.00
36692;BME280;22678;52.052;4.242;2023-02-04T07:57:25;103666.47;;;8.14;100.00
36692;BME280;22678;52.052;4.242;2023-02-04T07:59:50;103675.00;;;8.10;100.00
36692;BME280;22678;52.052;4.242;2023-02-04T08:02:15;103677.22;;;8.20;100.00
36692;BME280;22678;52.052;4.242;2023-02-04T08:04:41;103674.53;;;8.18;100.00
36692;BME280;22678;52.052;4.242;2023-02-04T08:07:06;103672.75;;;8.17;100.00
36692;BME280;22678;52.052;4.242;2023-02-04T08:09:31;103674.53;;;8.18;100.00
36692;BME280;22678;52.052;4.242;2023-02-04T08:11:57;103679.19;;;8.24;100.00
36692;BME280;22678;52.052;4.242;2023-02-04T08:14:24;103678.16;;;8.20;100.00
36692;BME280;22678;52.052;4.242;2023-02-04T08:16:49;103679.91;;;8.21;100.00
36692;BME280;22678;52.052;4.242;2023-02-04T08:19:14;103686.38;;;8.28;100.00
36692;BME280;22678;52.052;4.242;2023-02-04T08:21:44;103684.56;;;8.27;100.00
36692;BME280;22678;52.052;4.242;2023-02-04T08:24:11;103687.41;;;8.32;100.00
36692;BME280;22678;52.052;4.242;2023-02-04T08:26:36;103692.09;;;8.39;100.00
36692;BME280;22678;52.052;4.242;2023-02-04T08:29:01;103689.34;;;8.36;100.00
36692;BME280;22678;52.052;4.242;2023-02-04T08:31:27;103698.34;;;8.41;100.00
36692;BME280;22678;52.052;4.242;2023-02-04T08:33:53;103695.06;;;8.45;100.00
36692;BME280;22678;52.052;4.242;2023-02-04T08:36:18;103704.03;;;8.50;100.00
36692;BME280;22678;52.052;4.242;2023-02-04T08:38:43;103703.97;;;8.49;100.00
36692;BME280;22678;52.052;4.242;2023-02-04T08:41:09;103696.97;;;8.49;100.00
36692;BME280;22678;52.052;4.242;2023-02-04T08:43:34;103692.66;;;8.50;100.00
36692;BME280;22678;52.052;4.242;2023-02-04T08:46:01;103693.69;;;8.53;100.00
36692;BME280;22678;52.052;4.242;2023-02-04T08:48:26;103694.75;;;8.57;100.00
36692;BME280;22678;52.052;4.242;2023-02-04T08:50:51;103695.63;;;8.57;100.00
36692;BME280;22678;52.052;4.242;2023-02-04T08:53:17;103696.66;;;8.61;100.00
36692;BME280;22678;52.052;4.242;2023-02-04T08:55:42;103699.34;;;8.63;100.00
36692;BME280;22678;52.052;4.242;2023-02-04T08:58:08;103713.66;;;8.69;100.00
36692;BME280;22678;52.052;4.242;2023-02-04T09:00:33;103698.53;;;8.64;100.00
36692;BME280;22678;52.052;4.242;2023-02-04T09:02:58;103708.06;;;8.62;100.00
36692;BME280;22678;52.052;4.242;2023-02-04T09:05:24;103712.75;;;8.69;100.00
36692;BME280;22678;52.052;4.242;2023-02-04T09:07:49;103710.13;;;8.69;100.00
36692;BME280;22678;52.052;4.242;2023-02-04T09:10:15;103721.59;;;8.71;100.00
36692;BME280;22678;52.052;4.242;2023-02-04T09:12:40;103719.78;;;8.70;100.00
36692;BME280;22678;52.052;4.242;2023-02-04T09:15:08;103713.59;;;8.68;100.00
36692;BME280;22678;52.052;4.242;2023-02-04T09:17:34;103713.59;;;8.68;100.00
36692;BME280;22678;52.052;4.242;2023-02-04T09:20:00;103731.41;;;8.75;100.00
36692;BME280;22678;52.052;4.242;2023-02-04T09:22:25;103722.41;;;8.70;100.00
36692;BME280;22678;52.052;4.242;2023-02-04T09:24:50;103716.41;;;8.72;100.00
36692;BME280;22678;52.052;4.242;2023-02-04T09:27:16;103715.38;;;8.69;100.00
36692;BME280;22678;52.052;4.242;2023-02-04T09:29:41;103733.34;;;8.79;100.00
36692;BME280;22678;52.052;4.242;2023-02-04T09:32:06;103740.50;;;8.83;100.00
36692;BME280;22678;52.052;4.242;2023-02-04T09:34:31;103722.72;;;8.76;100.00
36692;BME280;22678;52.052;4.242;2023-02-04T09:36:57;103742.44;;;8.87;100.00
36692;BME280;22678;52.052;4.242;2023-02-04T09:39:22;103733.47;;;8.82;100.00
36692;BME280;22678;52.052;4.242;2023-02-04T09:41:48;103761.03;;;8.92;100.00
36692;BME280;22678;52.052;4.242;2023-02-04T09:44:17;103754.88;;;8.91;100.00
36692;BME280;22678;52.052;4.242;2023-02-04T09:46:47;103752.31;;;8.93;100.00
36692;BME280;22678;52.052;4.242;2023-02-04T09:49:13;103735.44;;;8.86;100.00
36692;BME280;22678;52.052;4.242;2023-02-04T09:51:40;103752.53;;;8.98;100.00
36692;BME280;22678;52.052;4.242;2023-02-04T09:54:18;103757.91;;;9.01;100.00
36692;BME280;22678;52.052;4.242;2023-02-04T09:56:43;103742.66;;;8.92;100.00
36692;BME280;22678;52.052;4.242;2023-02-04T09:59:17;103759.59;;;8.99;100.00
36692;BME280;22678;52.052;4.242;2023-02-04T10:01:43;103763.09;;;8.99;100.00
36692;BME280;22678;52.052;4.242;2023-02-04T10:04:13;103769.41;;;9.03;100.00
36692;BME280;22678;52.052;4.242;2023-02-04T10:06:39;103768.47;;;9.02;100.00
36692;BME280;22678;52.052;4.242;2023-02-04T10:09:09;103764.03;;;9.00;100.00
36692;BME280;22678;52.052;4.242;2023-02-04T10:11:36;103749.63;;;8.91;100.00
36692;BME280;22678;52.052;4.242;2023-02-04T10:14:02;103774.78;;;9.06;100.00
36692;BME280;22678;52.052;4.242;2023-02-04T10:16:30;103773.97;;;9.07;100.00
36692;BME280;22678;52.052;4.242;2023-02-04T10:18:58;103777.41;;;9.06;100.00
36692;BME280;22678;52.052;4.242;2023-02-04T10:21:27;103780.03;;;9.06;100.00
36692;BME280;22678;52.052;4.242;2023-02-04T10:23:55;103773.59;;;8.99;100.00
36692;BME280;22678;52.052;4.242;2023-02-04T10:26:22;103777.34;;;9.04;100.00
36692;BME280;22678;52.052;4.242;2023-02-04T10:28:49;103782.47;;;9.01;100.00
36692;BME280;22678;52.052;4.242;2023-02-04T10:31:36;103783.63;;;9.08;100.00
36692;BME280;22678;52.052;4.242;2023-02-04T10:34:03;103782.88;;;9.10;100.00
36692;BME280;22678;52.052;4.242;2023-02-04T10:36:28;103783.63;;;9.08;100.00
36692;BME280;22678;52.052;4.242;2023-02-04T10:39:17;103780.03;;;9.06;100.00
36692;BME280;22678;52.052;4.242;2023-02-04T10:41:45;103795.25;;;9.13;100.00
36692;BME280;22678;52.052;4.242;2023-02-04T10:44:13;103791.63;;;9.11;100.00
36692;BME280;22678;52.052;4.242;2023-02-04T10:46:38;103781.84;;;9.07;100.00
36692;BME280;22678;52.052;4.242;2023-02-04T10:49:14;103792.47;;;9.10;100.00
36692;BME280;22678;52.052;4.242;2023-02-04T10:51:41;103788.81;;;9.06;100.00
36692;BME280;22678;52.052;4.242;2023-02-04T10:54:11;103792.34;;;9.07;100.00
36692;BME280;22678;52.052;4.242;2023-02-04T10:59:43;103792.63;;;9.13;100.00
36692;BME280;22678;52.052;4.242;2023-02-04T11:04:54;103790.81;;;9.12;100.00
36692;BME280;22678;52.052;4.242;2023-02-04T11:07:20;103778.50;;;9.11;100.00
36692;BME280;22678;52.052;4.242;2023-02-04T11:09:46;103789.31;;;9.17;100.00
36692;BME280;22678;52.052;4.242;2023-02-04T11:12:34;103767.72;;;9.05;100.00
36692;BME280;22678;52.052;4.242;2023-02-04T11:14:59;103785.06;;;9.21;100.00
36692;BME280;22678;52.052;4.242;2023-02-04T11:17:31;103788.66;;;9.23;100.00
36692;BME280;22678;52.052;4.242;2023-02-04T11:19:57;103779.97;;;9.24;100.00
36692;BME280;22678;52.052;4.242;2023-02-04T11:22:44;103781.69;;;9.23;100.00
36692;BME280;22678;52.052;4.242;2023-02-04T11:25:30;103785.41;;;9.28;100.00
36692;BME280;22678;52.052;4.242;2023-02-04T11:27:56;103772.97;;;9.24;100.00
36692;BME280;22678;52.052;4.242;2023-02-04T11:30:22;103780.97;;;9.27;100.00
36692;BME280;22678;52.052;4.242;2023-02-04T11:33:04;103780.97;;;9.27;100.00
36692;BME280;22678;52.052;4.242;2023-02-04T11:35:30;103764.81;;;9.18;100.00
36692;BME280;22678;52.052;4.242;2023-02-04T11:37:57;103777.41;;;9.25;100.00
36692;BME280;22678;52.052;4.242;2023-02-04T11:40:32;103778.34;;;9.27;100.00
36692;BME280;22678;52.052;4.242;2023-02-04T11:43:08;103786.22;;;9.27;100.00
36692;BME280;22678;52.052;4.242;2023-02-04T11:45:36;103772.91;;;9.23;100.00
36692;BME280;22678;52.052;4.242;2023-02-04T11:48:10;103784.59;;;9.29;100.00
36692;BME280;22678;52.052;4.242;2023-02-04T11:50:36;103780.16;;;9.28;100.00
36692;BME280;22678;52.052;4.242;2023-02-04T11:53:09;103784.59;;;9.29;100.00
36692;BME280;22678;52.052;4.242;2023-02-04T11:55:42;103784.53;;;9.28;100.00
36692;BME280;22678;52.052;4.242;2023-02-04T11:58:15;103763.13;;;9.19;100.00
36692;BME280;22678;52.052;4.242;2023-02-04T12:00:40;103778.44;;;9.29;100.00
36692;BME280;22678;52.052;4.242;2023-02-04T12:05:45;103779.28;;;9.28;100.00
36692;BME280;22678;52.052;4.242;2023-02-04T12:13:23;103788.78;;;9.26;100.00
36692;BME280;22678;52.052;4.242;2023-02-04T12:16:05;103776.25;;;9.19;100.00
36692;BME280;22678;52.052;4.242;2023-02-04T12:18:32;103794.03;;;9.26;100.00
36692;BME280;22678;52.052;4.242;2023-02-04T12:20:59;103792.34;;;9.26;100.00
36692;BME280;22678;52.052;4.242;2023-02-04T12:23:26;103789.72;;;9.26;100.00
36692;BME280;22678;52.052;4.242;2023-02-04T12:25:52;103773.03;;;9.26;100.00
36692;BME280;22678;52.052;4.242;2023-02-04T12:28:18;103782.16;;;9.34;100.00
36692;BME280;22678;52.052;4.242;2023-02-04T12:30:44;103783.03;;;9.35;100.00
36692;BME280;22678;52.052;4.242;2023-02-04T12:33:09;103773.41;;;9.34;100.00
36692;BME280;22678;52.052;4.242;2023-02-04T12:35:35;103769.09;;;9.36;100.00
36692;BME280;22678;52.052;4.242;2023-02-04T12:38:00;103778.22;;;9.44;100.00
36692;BME280;22678;52.052;4.242;2023-02-04T12:40:26;103779.16;;;9.46;100.00
36692;BME280;22678;52.052;4.242;2023-02-04T12:42:52;103769.34;;;9.42;100.00
36692;BME280;22678;52.052;4.242;2023-02-04T12:45:17;103758.84;;;9.42;100.00
36692;BME280;22678;52.052;4.242;2023-02-04T12:47:43;103767.78;;;9.45;100.00
36692;BME280;22678;52.052;4.242;2023-02-04T12:50:10;103777.00;;;9.57;100.00
36692;BME280;22678;52.052;4.242;2023-02-04T12:52:35;103720.50;;;9.26;100.00
36692;BME280;22678;52.052;4.242;2023-02-04T12:55:02;103760.34;;;9.56;100.00
36692;BME280;22678;52.052;4.242;2023-02-04T12:57:29;103767.59;;;9.62;100.00
36692;BME280;22678;52.052;4.242;2023-02-04T12:59:55;103774.84;;;9.68;100.00
36692;BME280;22678;52.052;4.242;2023-02-04T13:02:22;103763.47;;;9.69;100.00